Time;durP1;ratioP1;P1;durP2;ratioP2;P2;SDS_P1;SDS_P2;PMS_P1;PMS_P2;Temp;Humidity;BMP_temperature;BMP_pressure;BME280_temperature;BME280_humidity;BME280_pressure;Samples;Min_cycle;Max_cycle;Signal;HPM_P1;HPM_P2
2022/07/03 00:02:17;;;;;;;10.50;3.90;;;;;;;25.22;39.76;100851.22;123551;1098;104347;-79
2022/07/03 00:04:52;;;;;;;9.60;4.43;;;;;;;25.20;40.10;100855.73;123572;1099;104473;-78
2022/07/03 00:07:23;;;;;;;9.63;3.83;;;;;;;25.18;39.90;100854.86;123604;1098;104220;-79
2022/07/03 00:09:55;;;;;;;7.67;4.13;;;;;;;25.18;40.24;100857.55;123534;1099;104267;-78
2022/07/03 00:12:29;;;;;;;10.50;4.30;;;;;;;25.15;39.71;100858.52;123546;1099;104316;-79
2022/07/03 00:15:07;;;;;;;8.60;4.20;;;;;;;25.14;40.23;100859.41;123560;1098;104251;-78
2022/07/03 00:17:48;;;;;;;13.43;4.20;;;;;;;25.16;40.29;100860.27;123584;1099;104450;-80
2022/07/03 00:20:20;;;;;;;8.80;4.00;;;;;;;25.14;40.01;100855.86;123589;1099;104248;-78
2022/07/03 00:22:52;;;;;;;10.17;4.27;;;;;;;25.14;40.54;100850.48;123593;1099;104335;-79
2022/07/03 00:25:26;;;;;;;12.30;4.13;;;;;;;25.15;40.16;100852.23;123632;1099;104273;-79
2022/07/03 00:27:58;;;;;;;9.03;4.10;;;;;;;25.15;40.37;100847.77;123585;1099;104290;-79
2022/07/03 00:30:29;;;;;;;7.43;3.80;;;;;;;25.16;40.45;100848.64;123545;1099;104352;-78
2022/07/03 00:33:04;;;;;;;9.13;4.10;;;;;;;25.16;40.38;100843.28;123567;1099;104249;-79
2022/07/03 00:35:40;;;;;;;6.47;3.60;;;;;;;25.14;40.44;100839.75;123708;1097;104351;-79
2022/07/03 00:38:15;;;;;;;6.20;3.80;;;;;;;25.12;40.39;100839.77;123680;1099;104242;-79
2022/07/03 00:40:46;;;;;;;12.07;3.73;;;;;;;25.10;40.10;100837.13;123642;1099;104316;-80
2022/07/03 00:43:19;;;;;;;10.33;3.90;;;;;;;25.10;40.36;100838.89;123646;1096;104329;-79
2022/07/03 00:45:54;;;;;;;9.57;4.10;;;;;;;25.11;40.53;100829.94;123572;1099;104287;-79
2022/07/03 00:48:25;;;;;;;11.53;4.00;;;;;;;25.10;40.68;100834.44;123582;1099;104213;-78
2022/07/03 00:51:00;;;;;;;13.97;4.20;;;;;;;25.06;40.50;100831.84;123684;1099;104219;-78
2022/07/03 00:53:33;;;;;;;8.63;3.90;;;;;;;25.02;40.26;100816.69;123602;1099;104815;-79
2022/07/03 00:56:06;;;;;;;7.53;4.07;;;;;;;25.00;40.74;100822.09;123687;1099;104527;-80
2022/07/03 00:58:39;;;;;;;11.38;3.80;;;;;;;24.97;40.73;100818.59;123586;1099;104354;-78
2022/07/03 01:01:16;;;;;;;10.18;3.67;;;;;;;24.92;41.11;100808.81;123536;1099;104415;-79
2022/07/03 01:03:49;;;;;;;9.00;4.33;;;;;;;24.87;40.84;100809.80;123514;1096;104255;-79
2022/07/03 01:06:19;;;;;;;;;;;;;;;24.82;40.96;100809.88;123569;1099;104309;-79
2022/07/03 01:08:58;;;;;;;8.60;4.13;;;;;;;24.80;40.94;100809.03;123551;1098;104377;-79
2022/07/03 01:11:35;;;;;;;7.23;4.10;;;;;;;24.76;40.66;100810.90;123672;1099;104332;-79
2022/07/03 01:14:22;;;;;;;9.35;4.15;;;;;;;24.74;40.79;100812.73;123541;1098;104339;-80
2022/07/03 01:16:59;;;;;;;7.43;4.10;;;;;;;24.74;41.13;100806.46;123620;1099;104258;-80
2022/07/03 01:19:41;;;;;;;14.30;4.60;;;;;;;24.74;41.14;100815.42;123546;1099;104313;-78
2022/07/03 01:22:31;;;;;;;8.30;4.20;;;;;;;24.70;41.04;100808.33;123710;1099;104333;-78
2022/07/03 01:25:24;;;;;;;7.37;3.80;;;;;;;24.68;41.22;100802.11;123683;1099;104303;-80
2022/07/03 01:28:14;;;;;;;11.60;4.55;;;;;;;24.65;41.29;100799.48;123575;1097;104331;-79
2022/07/03 01:30:48;;;;;;;9.03;3.90;;;;;;;24.63;41.22;100801.29;123525;1099;104357;-79
2022/07/03 01:33:22;;;;;;;8.67;4.53;;;;;;;24.63;41.76;100801.29;123597;1099;104311;-79
2022/07/03 01:36:21;;;;;;;9.83;4.40;;;;;;;24.59;41.83;100799.59;123629;1099;104373;-78
2022/07/03 01:38:55;;;;;;;10.07;4.30;;;;;;;24.53;41.95;100805.91;123574;1097;104258;-79
2022/07/03 01:41:30;;;;;;;7.23;4.20;;;;;;;24.48;42.17;100798.83;123619;1098;104280;-80
2022/07/03 01:44:04;;;;;;;9.20;4.27;;;;;;;24.44;41.76;100794.45;123609;1099;104258;-79
2022/07/03 01:46:35;;;;;;;8.87;4.40;;;;;;;24.42;41.84;100791.80;123630;1099;117734;-79
2022/07/03 01:49:12;;;;;;;8.83;4.23;;;;;;;24.37;41.96;100789.19;123484;1099;104395;-78
2022/07/03 01:51:44;;;;;;;9.40;4.20;;;;;;;24.34;41.86;100789.25;123683;1099;104273;-79
2022/07/03 01:54:17;;;;;;;13.80;4.33;;;;;;;24.36;42.24;100797.27;123709;1099;104922;-78
2022/07/03 01:56:50;;;;;;;12.10;4.17;;;;;;;24.35;41.87;100800.84;123871;1099;104341;-78
2022/07/03 01:59:25;;;;;;;12.23;4.27;;;;;;;24.35;42.40;100800.84;123950;1099;104335;-79
2022/07/03 02:02:12;;;;;;;14.30;4.43;;;;;;;24.32;42.15;100795.53;123755;1099;104322;-79
2022/07/03 02:04:55;;;;;;;11.97;4.67;;;;;;;24.30;42.20;100795.56;123890;1098;104928;-79
2022/07/03 02:07:39;;;;;;;11.03;4.63;;;;;;;24.28;42.23;100799.16;124067;1099;104163;-79
2022/07/03 02:10:18;;;;;;;9.57;4.40;;;;;;;24.27;42.43;100803.66;123929;1099;104309;-78
2022/07/03 02:12:58;;;;;;;11.63;4.10;;;;;;;24.25;42.16;100788.48;123723;1099;104402;-78
2022/07/03 02:15:33;;;;;;;12.53;4.63;;;;;;;24.23;42.51;100789.42;123528;1098;104437;-79
2022/07/03 02:18:22;;;;;;;15.73;4.70;;;;;;;24.23;42.51;100791.19;123894;1099;104332;-79
2022/07/03 02:21:04;;;;;;;17.27;4.50;;;;;;;24.23;42.46;100788.52;124007;1099;104249;-79
2022/07/03 02:23:53;;;;;;;13.85;4.70;;;;;;;24.22;42.66;100793.00;123722;1097;104247;-79
2022/07/03 02:26:33;;;;;;;9.80;4.23;;;;;;;24.22;43.33;100797.48;123619;1098;104278;-79
2022/07/03 02:29:08;;;;;;;9.70;4.03;;;;;;;24.19;42.74;100795.73;123706;1097;104395;-80
2022/07/03 02:31:45;;;;;;;11.30;4.17;;;;;;;24.17;43.14;100789.52;123852;1098;104315;-79
2022/07/03 02:34:23;;;;;;;7.80;4.23;;;;;;;24.15;43.11;100794.03;123778;1098;104679;-80
2022/07/03 02:37:01;;;;;;;12.70;4.70;;;;;;;24.13;42.88;100797.63;123823;1097;104271;-79
2022/07/03 02:39:45;;;;;;;10.87;4.20;;;;;;;24.09;42.91;100794.13;123782;1099;104308;-79
2022/07/03 02:42:30;;;;;;;10.50;4.75;;;;;;;24.05;42.93;100803.11;123977;1099;104295;-79
2022/07/03 02:45:05;;;;;;;12.10;4.40;;;;;;;24.02;43.24;100797.80;124100;1099;104265;-79
2022/07/03 02:47:44;;;;;;;10.70;4.40;;;;;;;23.99;43.24;100795.16;123971;1099;104293;-79
2022/07/03 02:50:22;;;;;;;13.50;4.67;;;;;;;23.96;43.13;100793.41;123888;1099;104293;-78
2022/07/03 02:53:00;;;;;;;15.87;5.47;;;;;;;23.94;43.62;100786.31;123754;1099;104239;-79
2022/07/03 02:55:43;;;;;;;12.67;5.40;;;;;;;23.92;43.36;100794.38;123805;1099;104435;-79
2022/07/03 02:58:44;;;;;;;12.43;5.53;;;;;;;23.89;43.09;100794.42;123782;1098;104284;-79
2022/07/03 03:01:31;;;;;;;14.80;5.70;;;;;;;23.93;43.03;100795.25;123949;1099;104210;-79
2022/07/03 03:04:13;;;;;;;17.20;6.10;;;;;;;23.94;43.21;100797.91;123513;1099;104270;-79
2022/07/03 03:06:54;;;;;;;17.27;7.07;;;;;;;23.93;43.16;100801.48;123480;1099;104239;-80
2022/07/03 03:09:33;;;;;;;16.57;6.20;;;;;;;23.95;43.34;100806.83;123607;1099;104329;-80
2022/07/03 03:12:06;;;;;;;16.70;6.47;;;;;;;23.95;42.89;100806.83;123623;1099;104315;-78
2022/07/03 03:14:40;;;;;;;;;;;;;;;23.94;42.99;100805.08;123638;1098;104264;-81
2022/07/03 03:17:15;;;;;;;20.75;6.95;;;;;;;23.94;43.14;100802.39;123620;1099;104321;-80
2022/07/03 03:19:52;;;;;;;17.33;6.73;;;;;;;23.99;43.07;100798.72;123517;1099;104223;-79
2022/07/03 03:22:34;;;;;;;18.55;6.20;;;;;;;24.03;43.25;100796.90;123482;1099;104415;-79
2022/07/03 03:25:07;;;;;;;16.75;6.50;;;;;;;24.06;42.93;100799.53;123469;1098;104271;-79
2022/07/03 03:27:39;;;;;;;24.80;7.00;;;;;;;24.10;43.22;100805.72;123904;1099;104273;-79
2022/07/03 03:30:18;;;;;;;18.97;6.87;;;;;;;24.12;43.20;100815.52;123900;1099;104242;-79
2022/07/03 03:32:50;;;;;;;18.83;7.50;;;;;;;24.13;43.24;100813.72;124350;1099;104325;-79
2022/07/03 03:35:22;;;;;;;16.17;6.50;;;;;;;24.14;43.33;100808.33;123715;1098;104457;-80
2022/07/03 03:37:54;;;;;;;19.13;7.03;;;;;;;24.16;43.37;100809.18;123643;1099;105631;-80
2022/07/03 03:40:27;;;;;;;16.63;6.13;;;;;;;24.19;43.28;100809.13;123754;1098;104300;-80
2022/07/03 03:42:58;;;;;;;18.55;6.60;;;;;;;24.24;43.31;100811.74;123768;1099;104262;-79
2022/07/03 03:45:30;;;;;;;18.37;6.77;;;;;;;24.30;43.25;100803.60;123639;1099;104293;-79
2022/07/03 03:48:02;;;;;;;16.87;6.47;;;;;;;24.32;43.10;100800.90;123510;1099;104354;-79
2022/07/03 03:50:33;;;;;;;20.73;6.77;;;;;;;24.33;43.27;100813.41;123475;1099;104219;-79
2022/07/03 03:53:05;;;;;;;14.90;6.13;;;;;;;24.32;42.87;100800.90;123520;1099;104347;-78
2022/07/03 03:55:52;;;;;;;14.77;5.93;;;;;;;24.31;43.00;100808.06;123826;1099;104219;-79
2022/07/03 03:58:24;;;;;;;17.83;6.17;;;;;;;24.34;43.31;100810.70;123929;1099;104282;-79
2022/07/03 04:00:58;;;;;;;17.20;6.50;;;;;;;24.40;43.10;100812.38;123814;1099;104339;-80
2022/07/03 04:03:31;;;;;;;11.93;5.58;;;;;;;24.45;43.31;100813.20;123596;1099;104352;-79
2022/07/03 04:06:04;;;;;;;14.30;5.70;;;;;;;24.50;43.51;100815.81;124061;1097;104367;-78
2022/07/03 04:08:35;;;;;;;14.90;5.77;;;;;;;24.52;42.95;100814.85;123641;1099;104340;-79
2022/07/03 04:11:07;;;;;;;15.27;5.27;;;;;;;24.56;43.12;100819.27;124006;1099;104166;-79
2022/07/03 04:13:41;;;;;;;17.97;6.33;;;;;;;24.60;43.10;100814.75;123910;1097;104312;-79
2022/07/03 04:16:12;;;;;;;17.33;5.70;;;;;;;24.62;43.08;100810.27;123664;1099;104348;-80
2022/07/03 04:18:44;;;;;;;16.67;5.73;;;;;;;24.67;43.01;100812.87;123860;1099;104306;-79
2022/07/03 04:21:18;;;;;;;12.70;5.35;;;;;;;24.67;43.32;100810.19;123851;1099;104676;-79
2022/07/03 04:23:50;;;;;;;13.63;5.40;;;;;;;24.65;43.13;100812.90;123970;1098;104306;-79
2022/07/03 04:26:22;;;;;;;14.70;5.20;;;;;;;24.67;43.34;100811.06;123744;1099;104374;-80
2022/07/03 04:28:55;;;;;;;14.20;5.37;;;;;;;24.70;43.25;100811.01;123900;1099;104335;-80
2022/07/03 04:31:27;;;;;;;16.90;5.97;;;;;;;24.74;42.93;100810.05;123774;1099;104227;-80
2022/07/03 04:33:58;;;;;;;15.00;5.80;;;;;;;24.73;43.22;100804.72;123988;1096;104258;-80
2022/07/03 04:36:30;;;;;;;15.27;6.10;;;;;;;24.76;43.32;100807.31;124059;1096;104283;-80
2022/07/03 04:39:02;;;;;;;17.10;6.60;;;;;;;24.79;43.03;100801.02;123962;1096;104635;-79
2022/07/03 04:41:33;;;;;;;16.97;6.00;;;;;;;24.84;43.37;100800.03;124048;1097;104265;-80
2022/07/03 04:44:05;;;;;;;12.50;5.27;;;;;;;24.90;43.35;100801.69;124199;1096;104344;-79
2022/07/03 04:46:36;;;;;;;18.13;6.20;;;;;;;24.93;43.18;100804.31;123711;1099;104264;-79
2022/07/03 04:49:10;;;;;;;15.67;6.40;;;;;;;24.94;43.22;100803.41;124053;1097;104335;-80
2022/07/03 04:51:42;;;;;;;15.10;5.97;;;;;;;24.93;43.41;100801.62;123857;1099;104325;-79
2022/07/03 04:54:14;;;;;;;11.83;5.77;;;;;;;24.92;43.59;100803.44;123830;1096;104348;-79
2022/07/03 04:56:46;;;;;;;12.77;5.73;;;;;;;24.92;43.46;100806.13;123568;1096;104264;-77
2022/07/03 04:59:18;;;;;;;14.80;5.07;;;;;;;24.94;43.11;100806.09;123576;1099;105373;-78
2022/07/03 05:01:50;;;;;;;12.50;5.43;;;;;;;24.96;42.95;100811.44;123551;1099;104283;-79
2022/07/03 05:04:22;;;;;;;10.10;5.35;;;;;;;24.98;43.45;100813.19;123743;1099;105095;-79
2022/07/03 05:06:57;;;;;;;10.43;5.17;;;;;;;24.97;42.80;100814.09;123775;1099;104431;-78
2022/07/03 05:09:28;;;;;;;13.37;5.33;;;;;;;24.98;43.42;100814.97;123755;1096;104264;-79
2022/07/03 05:12:00;;;;;;;17.40;5.90;;;;;;;25.07;43.04;100812.11;124371;1099;104421;-79
2022/07/03 05:14:32;;;;;;;13.27;4.90;;;;;;;25.16;43.26;100801.19;123804;1099;104242;-78
2022/07/03 05:17:04;;;;;;;14.90;5.13;;;;;;;25.26;43.24;100809.97;123816;1098;104364;-78
2022/07/03 05:19:37;;;;;;;14.37;5.20;;;;;;;25.37;43.21;100813.34;123815;1098;104188;-78
2022/07/03 05:22:09;;;;;;;16.83;5.37;;;;;;;25.45;43.20;100803.31;123664;1098;104261;-78
2022/07/03 05:24:41;;;;;;;13.30;4.90;;;;;;;25.61;43.00;100802.98;123707;1099;104338;-80
2022/07/03 05:27:12;;;;;;;11.45;5.25;;;;;;;25.76;43.25;100805.34;123583;1099;104270;-79
2022/07/03 05:29:45;;;;;;;12.30;5.40;;;;;;;25.91;42.74;100812.15;123534;1099;104373;-79
2022/07/03 05:32:16;;;;;;;11.80;5.07;;;;;;;26.08;42.42;100808.23;123557;1098;104316;-79
2022/07/03 05:34:47;;;;;;;15.33;4.77;;;;;;;26.19;42.29;100800.78;123462;1099;104397;-79
2022/07/03 05:37:19;;;;;;;11.55;5.10;;;;;;;26.33;42.74;100808.52;123501;1099;104296;-78
2022/07/03 05:39:50;;;;;;;14.37;5.00;;;;;;;26.41;42.43;100801.12;123516;1099;104316;-79
2022/07/03 05:42:22;;;;;;;13.13;5.37;;;;;;;26.47;42.28;100806.35;123530;1099;104412;-80
2022/07/03 05:44:54;;;;;;;8.63;4.40;;;;;;;26.57;42.16;100804.33;123817;1099;104270;-80
2022/07/03 05:47:26;;;;;;;11.37;4.63;;;;;;;26.61;41.74;100808.69;124055;1099;104329;-80
2022/07/03 05:49:57;;;;;;;12.65;4.60;;;;;;;26.69;42.19;100805.83;124019;1099;104273;-80
2022/07/03 05:52:28;;;;;;;10.77;5.40;;;;;;;26.77;41.91;100803.84;123872;1099;104267;-79
2022/07/03 05:55:00;;;;;;;12.57;4.80;;;;;;;26.89;42.13;100808.87;123901;1099;104338;-80
2022/07/03 05:57:31;;;;;;;11.03;4.33;;;;;;;27.01;41.81;100812.17;123605;1099;104382;-80
2022/07/03 06:00:05;;;;;;;9.97;4.20;;;;;;;27.14;42.07;100804.62;123451;1099;104335;-80
2022/07/03 06:02:36;;;;;;;13.80;4.43;;;;;;;27.20;41.41;100808.02;123578;1096;104293;-79
2022/07/03 06:05:09;;;;;;;9.73;4.10;;;;;;;27.29;41.65;100806.88;123547;1099;104310;-80
2022/07/03 06:07:41;;;;;;;7.63;3.90;;;;;;;27.34;41.32;100809.48;123567;1099;104216;-79
2022/07/03 06:10:12;;;;;;;8.37;4.13;;;;;;;27.36;41.17;100808.52;123891;1097;104284;-80
2022/07/03 06:12:44;;;;;;;10.97;4.40;;;;;;;27.36;41.29;100803.13;123963;1097;104258;-79
2022/07/03 06:15:17;;;;;;;10.73;4.07;;;;;;;27.36;40.98;100805.83;123865;1096;104229;-80
2022/07/03 06:17:48;;;;;;;11.88;4.37;;;;;;;27.36;40.67;100804.92;124297;1099;104280;-78
2022/07/03 06:20:20;;;;;;;13.10;4.07;;;;;;;27.32;40.97;100801.44;123671;1099;104409;-79
2022/07/03 06:22:52;;;;;;;10.73;4.50;;;;;;;27.28;40.64;100794.33;123734;1098;104778;-78
2022/07/03 06:25:24;;;;;;;9.13;4.40;;;;;;;27.26;40.73;100790.80;123828;1099;104261;-79
2022/07/03 06:27:56;;;;;;;10.00;4.30;;;;;;;27.26;40.69;100793.50;123861;1099;104213;-78
2022/07/03 06:30:28;;;;;;;8.97;4.10;;;;;;;27.26;40.62;100796.20;124094;1099;104261;-79
2022/07/03 06:33:00;;;;;;;10.47;4.50;;;;;;;27.25;40.87;100787.24;123832;1099;104680;-77
2022/07/03 06:35:31;;;;;;;14.00;4.50;;;;;;;27.29;40.59;100792.54;124134;1097;104319;-78
2022/07/03 06:38:05;;;;;;;9.60;4.07;;;;;;;27.33;40.80;100794.23;124013;1096;104291;-79
2022/07/03 06:40:39;;;;;;;19.20;4.50;;;;;;;27.35;40.57;100790.57;124147;1098;104253;-78
2022/07/03 06:43:11;;;;;;;9.10;4.60;;;;;;;27.42;40.56;100793.95;123848;1099;104229;-78
2022/07/03 06:45:43;;;;;;;9.03;4.30;;;;;;;27.48;40.60;100791.09;123789;1099;104214;-77
2022/07/03 06:48:23;;;;;;;13.67;4.80;;;;;;;27.51;40.31;100785.60;123755;1099;104273;-78
2022/07/03 06:50:55;;;;;;;7.67;4.10;;;;;;;27.57;40.78;100782.72;123898;1099;104241;-79
2022/07/03 06:53:27;;;;;;;10.80;4.17;;;;;;;27.64;40.83;100786.10;123978;1099;104232;-79
2022/07/03 06:55:58;;;;;;;8.05;4.40;;;;;;;27.73;40.27;100785.82;123920;1099;104287;-78
2022/07/03 06:58:30;;;;;;;12.27;4.63;;;;;;;27.82;40.39;100784.66;123800;1097;104617;-78
2022/07/03 07:01:02;;;;;;;8.93;4.30;;;;;;;27.89;40.17;100788.94;123710;1099;104610;-78
2022/07/03 07:03:33;;;;;;;7.57;3.97;;;;;;;27.94;40.20;100784.27;123796;1099;104332;-78
2022/07/03 07:06:05;;;;;;;8.23;4.37;;;;;;;28.06;40.59;100785.70;123690;1099;104258;-79
2022/07/03 07:08:37;;;;;;;8.87;4.40;;;;;;;28.20;40.20;100792.48;123652;1098;104291;-78
2022/07/03 07:11:09;;;;;;;11.10;4.07;;;;;;;28.33;39.41;100778.53;123616;1096;104389;-78
2022/07/03 07:13:41;;;;;;;10.70;4.33;;;;;;;28.47;39.19;100780.76;123727;1099;104296;-78
2022/07/03 07:16:13;;;;;;;10.07;4.30;;;;;;;28.60;39.37;100786.64;123852;1099;104265;-77
2022/07/03 07:18:45;;;;;;;13.53;4.63;;;;;;;28.71;39.34;100779.99;123651;1099;104232;-79
2022/07/03 07:21:17;;;;;;;7.70;4.00;;;;;;;28.80;38.95;100779.67;123665;1099;104151;-79
2022/07/03 07:23:49;;;;;;;9.30;4.30;;;;;;;28.92;38.75;100768.42;123725;1099;104306;-79
2022/07/03 07:26:21;;;;;;;9.60;4.00;;;;;;;29.07;38.46;100760.69;123956;1099;104204;-77
2022/07/03 07:28:52;;;;;;;15.33;4.40;;;;;;;29.21;38.14;100763.77;123680;1099;104243;-79
2022/07/03 07:31:24;;;;;;;8.00;3.90;;;;;;;29.37;38.25;100758.66;123683;1099;104389;-77
2022/07/03 07:33:56;;;;;;;9.85;4.10;;;;;;;29.54;37.52;100753.47;123912;1099;104280;-78
2022/07/03 07:36:28;;;;;;;7.10;3.70;;;;;;;29.70;37.15;100756.47;123920;1099;104374;-77
2022/07/03 07:38:59;;;;;;;8.90;4.20;;;;;;;29.86;37.12;100758.59;123790;1099;104306;-78
2022/07/03 07:41:31;;;;;;;6.70;3.77;;;;;;;30.00;36.62;100750.78;124045;1099;104293;-78
2022/07/03 07:44:03;;;;;;;10.63;4.20;;;;;;;30.15;35.79;100748.38;124100;1099;104718;-77
2022/07/03 07:46:35;;;;;;;9.07;4.10;;;;;;;30.32;35.63;100753.94;123704;1099;104319;-78
2022/07/03 07:49:07;;;;;;;7.80;4.23;;;;;;;30.49;35.57;100745.13;124049;1099;104386;-77
2022/07/03 07:51:39;;;;;;;9.30;4.00;;;;;;;30.61;35.07;100749.14;123967;1099;104344;-78
2022/07/03 07:54:10;;;;;;;7.40;4.13;;;;;;;30.73;34.57;100740.48;123792;1099;104361;-79
2022/07/03 07:56:42;;;;;;;9.83;4.07;;;;;;;30.91;34.48;100740.59;123697;1099;104252;-79
2022/07/03 07:59:14;;;;;;;8.03;4.23;;;;;;;31.06;34.17;100731.80;124244;1099;104306;-78
2022/07/03 08:07:24;;;;;;;7.27;4.20;;;;;;;31.51;33.36;100740.55;123774;1099;104283;-77
2022/07/03 08:09:56;;;;;;;6.80;4.57;;;;;;;31.62;32.95;100734.61;123951;1098;104159;-79
2022/07/03 08:12:28;;;;;;;12.10;4.47;;;;;;;31.73;32.36;100734.98;123889;1098;104335;-79
2022/07/03 08:15:00;;;;;;;8.45;4.35;;;;;;;31.79;32.20;100734.69;123825;1099;104460;-79
2022/07/03 08:17:32;;;;;;;11.37;4.60;;;;;;;31.83;32.22;100728.13;123726;1099;104264;-78
2022/07/03 08:20:05;;;;;;;7.43;4.40;;;;;;;31.94;32.34;100732.16;124100;1099;104319;-79
2022/07/03 08:22:37;;;;;;;10.07;4.07;;;;;;;32.06;31.99;100726.11;124205;1099;104303;-78
2022/07/03 08:25:09;;;;;;;11.73;4.50;;;;;;;32.14;31.08;100723.91;124028;1098;104354;-78
2022/07/03 08:27:41;;;;;;;11.80;4.00;;;;;;;32.27;31.17;100732.30;123844;1099;104296;-78
2022/07/03 08:30:17;;;;;;;9.57;4.17;;;;;;;32.44;30.75;100728.70;124247;1099;104326;-79
2022/07/03 08:32:49;;;;;;;7.57;3.97;;;;;;;32.64;30.34;100733.13;123857;1097;104169;-77
2022/07/03 08:35:21;;;;;;;4.53;3.75;;;;;;;32.77;30.32;100722.48;124241;1098;104262;-78
2022/07/03 08:37:53;;;;;;;8.43;3.80;;;;;;;32.83;30.61;100719.42;123859;1098;104258;-77
2022/07/03 08:40:25;;;;;;;9.97;4.20;;;;;;;32.84;30.02;100710.33;123735;1098;104329;-79
2022/07/03 08:43:03;;;;;;;6.30;4.47;;;;;;;32.89;30.18;100720.95;123881;1097;104239;-78
2022/07/03 08:45:38;;;;;;;9.60;4.23;;;;;;;32.99;29.96;100710.44;124088;1098;110728;-77
2022/07/03 08:48:11;;;;;;;8.63;4.13;;;;;;;33.04;29.36;100720.11;124125;1099;104274;-77
2022/07/03 08:50:44;;;;;;;7.87;4.43;;;;;;;33.14;29.44;100715.94;123948;1096;104245;-78
2022/07/03 08:53:17;;;;;;;9.67;4.10;;;;;;;33.19;29.37;100712.96;123804;1098;104363;-77
2022/07/03 08:55:50;;;;;;;7.37;4.22;;;;;;;33.25;29.54;100709.91;124006;1099;104293;-77
2022/07/03 08:58:24;;;;;;;9.83;4.00;;;;;;;33.29;29.11;100711.50;124117;1099;104335;-77
2022/07/03 09:00:56;;;;;;;8.23;4.23;;;;;;;33.39;29.31;100709.13;124394;1097;104232;-77
2022/07/03 09:03:29;;;;;;;12.33;4.43;;;;;;;33.46;29.42;100717.84;124389;1098;104275;-77
2022/07/03 09:06:01;;;;;;;9.45;4.10;;;;;;;33.50;29.44;100712.13;124006;1099;107011;-79
2022/07/03 09:08:35;;;;;;;6.33;3.90;;;;;;;33.55;29.17;100717.31;123957;1099;104344;-77
2022/07/03 09:11:10;;;;;;;10.80;4.53;;;;;;;33.56;29.12;100705.45;123825;1099;104261;-78
2022/07/03 09:13:42;;;;;;;8.83;4.35;;;;;;;33.61;29.07;100702.46;123897;1099;104259;-79
2022/07/03 09:16:18;;;;;;;5.57;4.03;;;;;;;33.74;29.08;100708.09;124194;1098;118839;-77
2022/07/03 09:18:50;;;;;;;8.73;4.50;;;;;;;33.81;29.10;100704.06;123875;1099;104402;-78
2022/07/03 09:21:24;;;;;;;12.20;4.47;;;;;;;33.94;29.36;100706.92;124328;1099;104257;-78
2022/07/03 09:24:04;;;;;;;10.73;4.50;;;;;;;34.01;29.13;100702.89;124166;1099;104246;-77
2022/07/03 09:26:37;;;;;;;6.90;4.03;;;;;;;34.08;29.16;100703.39;123802;1099;104275;-77
2022/07/03 09:29:15;;;;;;;9.90;4.40;;;;;;;34.12;29.02;100704.97;124190;1099;104312;-78
2022/07/03 09:31:56;;;;;;;13.17;4.80;;;;;;;34.13;29.29;100698.57;124102;1099;104263;-80
2022/07/03 09:34:28;;;;;;;10.20;4.50;;;;;;;34.18;29.31;100699.16;124390;1099;104162;-79
2022/07/03 09:37:00;;;;;;;6.80;4.37;;;;;;;34.27;29.22;100693.19;124046;1099;104255;-80
2022/07/03 09:39:34;;;;;;;7.63;4.50;;;;;;;34.36;28.96;100689.01;124204;1099;104219;-79
2022/07/03 09:42:09;;;;;;;4.37;3.90;;;;;;;34.43;29.11;100695.84;116209;1095;10001013;-79
2022/07/03 09:44:45;;;;;;;8.83;4.57;;;;;;;34.47;29.17;100685.63;124555;1096;104241;-78
2022/07/03 09:47:19;;;;;;;8.43;4.60;;;;;;;34.51;28.55;100690.80;124365;1099;104267;-80
2022/07/03 09:49:54;;;;;;;7.80;4.60;;;;;;;34.54;29.29;100697.91;124679;1099;104194;-79
2022/07/03 09:52:35;;;;;;;9.50;4.57;;;;;;;34.55;28.69;100694.22;124561;1099;105183;-79
2022/07/03 09:55:18;;;;;;;7.40;4.57;;;;;;;34.58;28.70;100694.03;124749;1099;104248;-79
2022/07/03 09:58:02;;;;;;;7.77;4.57;;;;;;;34.51;28.59;100698.09;124278;1099;104240;-79
2022/07/03 10:00:35;;;;;;;6.87;4.40;;;;;;;34.43;28.64;100694.98;124245;1099;104316;-77
2022/07/03 10:03:08;;;;;;;9.40;4.63;;;;;;;34.43;28.63;100700.42;124138;1099;104264;-80
2022/07/03 10:05:42;;;;;;;6.97;4.60;;;;;;;34.41;28.60;100686.91;124297;1099;104363;-80
2022/07/03 10:08:17;;;;;;;9.90;4.73;;;;;;;34.34;28.92;100686.38;124173;1098;104242;-80
2022/07/03 10:10:50;;;;;;;8.70;4.17;;;;;;;34.30;28.95;100678.48;124673;1099;104370;-81
2022/07/03 10:13:23;;;;;;;9.63;4.60;;;;;;;34.38;29.16;100671.61;124694;1097;104259;-79
2022/07/03 10:15:56;;;;;;;8.57;4.40;;;;;;;34.50;28.71;100669.09;124526;1099;103038;-79
2022/07/03 10:18:35;;;;;;;6.80;4.07;;;;;;;34.51;29.01;100671.72;124875;1099;104306;-79
2022/07/03 10:21:08;;;;;;;7.27;4.30;;;;;;;34.48;28.84;100665.59;124160;1099;104341;-80
2022/07/03 10:23:41;;;;;;;11.77;5.23;;;;;;;34.37;28.81;100674.43;124638;1099;104304;-80
2022/07/03 10:26:13;;;;;;;7.50;4.77;;;;;;;34.26;28.93;100658.75;124455;1099;104635;-81
2022/07/03 10:28:46;;;;;;;10.23;4.80;;;;;;;34.23;28.89;100661.63;124328;1099;104217;-79
2022/07/03 10:31:19;;;;;;;7.43;4.83;;;;;;;34.18;28.95;100661.04;124077;1097;104405;-81
2022/07/03 10:33:55;;;;;;;12.65;4.97;;;;;;;34.21;29.05;100652.69;124489;1099;104258;-81
2022/07/03 10:36:29;;;;;;;8.97;4.70;;;;;;;34.23;29.05;100658.90;124727;1098;104278;-79
2022/07/03 10:39:07;;;;;;;8.47;4.37;;;;;;;34.34;29.31;100650.97;124510;1099;104257;-79
2022/07/03 10:44:49;;;;;;;11.37;4.70;;;;;;;34.83;29.12;100636.16;124732;1098;104214;-80
2022/07/03 10:47:44;;;;;;;9.57;4.67;;;;;;;35.01;28.88;100634.08;124507;1098;104274;-79
2022/07/03 10:50:18;;;;;;;9.20;4.57;;;;;;;35.02;28.74;100644.02;124683;1096;104258;-79
2022/07/03 10:52:50;;;;;;;7.30;4.47;;;;;;;34.84;28.76;100639.75;124173;1099;104262;-80
2022/07/03 10:55:25;;;;;;;7.10;4.53;;;;;;;34.71;28.82;100635.05;124570;1099;104303;-78
2022/07/03 10:58:13;;;;;;;10.00;4.90;;;;;;;34.66;28.84;100629.03;124301;1099;104387;-80
2022/07/03 11:00:58;;;;;;;8.73;4.70;;;;;;;34.66;28.88;100631.75;124080;1098;104289;-79
2022/07/03 11:03:57;;;;;;;8.67;4.60;;;;;;;34.75;29.19;100622.16;124171;1099;104201;-80
2022/07/03 11:07:00;;;;;;;8.97;4.80;;;;;;;34.91;29.38;100625.63;124485;1098;104264;-79
2022/07/03 11:09:32;;;;;;;9.07;5.07;;;;;;;35.00;29.34;100626.00;124248;1098;104223;-79
2022/07/03 11:12:04;;;;;;;10.55;4.80;;;;;;;34.98;29.44;100622.52;124671;1099;104334;-79
2022/07/03 11:14:36;;;;;;;9.25;4.62;;;;;;;34.89;29.42;100616.69;124575;1099;104245;-81
2022/07/03 11:17:30;;;;;;;9.40;4.90;;;;;;;34.83;29.43;100617.09;124537;1099;104301;-78
2022/07/03 11:20:25;;;;;;;8.63;4.60;;;;;;;34.66;28.99;100614.54;123980;1099;104379;-81
2022/07/03 11:23:08;;;;;;;9.43;5.00;;;;;;;34.64;29.05;100606.46;124200;1098;104287;-80
2022/07/03 11:25:42;;;;;;;;;;;;;;;34.61;29.20;100606.66;124997;1099;104286;-79
2022/07/03 11:28:34;;;;;;;;;;;;;;;34.56;29.31;100604.22;124890;1098;104232;-80
2022/07/03 11:31:22;;;;;;;9.53;4.67;;;;;;;34.74;29.24;100601.29;125079;1097;104232;-79
2022/07/03 11:34:01;;;;;;;8.63;4.23;;;;;;;34.89;29.37;100603.06;124744;1099;104245;-80
2022/07/03 11:36:34;;;;;;;7.90;4.70;;;;;;;34.86;29.04;100607.81;124365;1099;105056;-80
2022/07/03 11:39:19;;;;;;;9.23;4.90;;;;;;;34.72;29.41;100597.80;123695;1099;107873;-79
2022/07/03 11:41:51;;;;;;;8.63;4.60;;;;;;;34.77;29.23;100597.50;124185;1099;104307;-80
2022/07/03 11:44:23;;;;;;;8.80;4.43;;;;;;;34.93;29.35;100601.00;124056;1099;104562;-79
2022/07/03 11:46:57;;;;;;;9.33;4.67;;;;;;;35.14;29.13;100595.11;124065;1099;104216;-78
2022/07/03 11:49:28;;;;;;;11.70;5.23;;;;;;;35.29;28.83;100591.40;124189;1099;104419;-80
2022/07/03 11:52:05;;;;;;;12.70;5.40;;;;;;;35.30;28.61;100595.89;124239;1099;104364;-80